Baraboo, WI (53913)

12:33 PM CDT on April 30, 2017 (GMT -0500)
Guppy St | | Change Station

Elev 873 ft 43.46 °N, 89.74 °W | Updated 17 seconds ago

Overcast
Overcast
42.3 °F
Feels Like 42 °F
N
0.0
Wind Variable Wind from ESE

Today
High -- | Low -- °F
--% Chance of Precip.
Yesterday
High -- | Low -- °F
Precip. -- in
Pressure 29.92 in
Visibility 2.0 miles
Clouds Overcast 500 ft
Windchill 42 °F
Dew Point 41 °F
Humidity 98%
Rainfall 0.02 in
Snow Depth Not available.
5:52 AM 8:00 PM
Waxing Crescent, 24% visible
METAR KDLL 301715Z AUTO 05010G17KT 2SM -RA OVC005 05/04 A2992 RMK AO2 T00470040
Pressure 29.92 in
Visibility 2.0 miles
Clouds Overcast 500 ft
Windchill 42 °F
Dew Point 41 °F
Humidity 98%
Rainfall 0.02 in
Snow Depth Not available.
5:52 AM 8:00 PM
Waxing Crescent, 24% visible
METAR KDLL 301715Z AUTO 05010G17KT 2SM -RA OVC005 05/04 A2992 RMK AO2 T00470040

Get Severe Weather Alerts

Thanks for signing up!

Be on the lookout for a verification email in your inbox.

You'll start receiving the daily forecast at 8 AM.

×

10-Day Weather Forecast

Almanac

Astronomy

Apr. 30, 2017 Rise Set
Actual Time
Civil Twilight
Nautical Twilight
Astronomical Twilight
Moon
Length of Visible Light
Length of Day
Tomorrow will be .
, % of the Moon is Illuminated

Today's Extremes

State Highs State Lows

Community

WunderPhotos

WunderBlog® & News

Nearby

Air Quality

  Air Quality AQ Index Pollutant
Not available.

Snow Depth

Station Depth Elevation

Earthquake Activity

City Distance Mag. Time & Date
Minimum magnitude displayed is 2.5.

Coastal Water Temperatures

Place Temperature

Stations

Nearby Weather Stations

Station Location Temp. Windchill Dew Point Humidity Wind Precip. Elev Updated Type
                   

Watches & Warnings

There are currently no watches in effect.